Time;durP1;ratioP1;P1;durP2;ratioP2;P2;SDS_P1;SDS_P2;PMS_P1;PMS_P2;Temp;Humidity;BMP_temperature;BMP_pressure;BME280_temperature;BME280_humidity;BME280_pressure;Samples;Min_cycle;Max_cycle;Signal;HPM_P1;HPM_P2
2022/07/18 00:01:18;;;;;;;3.17;2.97;;;17.40;89.60;;;18.13;54.57;98663.84;5141134;28;20275;-59
2022/07/18 00:03:51;;;;;;;4.07;2.88;;;17.30;88.60;;;18.10;54.02;98664.63;5142424;28;20203;-61
2022/07/18 00:06:24;;;;;;;4.93;3.10;;;17.20;88.00;;;18.08;54.80;98663.66;5142163;28;20282;-62
2022/07/18 00:08:57;;;;;;;2.92;2.72;;;17.20;89.90;;;18.05;54.73;98670.41;5141125;28;20196;-60
2022/07/18 00:11:30;;;;;;;3.17;2.85;;;17.20;89.60;;;18.08;55.16;98665.38;5139445;28;20376;-62
2022/07/18 00:14:04;;;;;;;2.65;2.45;;;17.20;89.90;;;18.01;55.83;98656.47;5140577;28;20204;-61
2022/07/18 00:16:38;;;;;;;2.70;2.50;;;17.10;90.30;;;17.93;55.68;98657.88;5138213;28;20192;-62
2022/07/18 00:19:12;;;;;;;3.10;2.80;;;17.10;90.20;;;17.91;55.60;98651.75;5140995;28;20286;-62
2022/07/18 00:21:45;;;;;;;3.88;2.45;;;17.00;90.60;;;17.78;55.75;98658.13;5141056;28;20228;-64
2022/07/18 00:24:18;;;;;;;2.72;2.53;;;16.90;90.40;;;17.73;55.53;98672.53;5142550;28;20300;-60
2022/07/18 00:26:51;;;;;;;2.70;2.50;;;16.80;90.60;;;17.71;55.96;98675.06;5139320;28;20613;-62
2022/07/18 00:29:25;;;;;;;3.38;2.90;;;16.80;90.90;;;17.67;57.18;98667.09;5143976;28;20208;-61
2022/07/18 00:31:59;;;;;;;2.88;2.67;;;16.80;91.20;;;17.59;56.73;98665.91;5140667;28;20844;-62
2022/07/18 00:34:33;;;;;;;4.57;2.35;;;16.70;91.00;;;17.52;56.28;98662.19;5140323;28;20203;-58
2022/07/18 00:37:06;;;;;;;3.33;2.58;;;16.60;91.00;;;17.44;57.05;98663.53;5139388;28;20195;-61
2022/07/18 00:39:40;;;;;;;3.58;2.42;;;16.50;91.50;;;17.38;56.62;98664.16;5142168;28;20988;-59
2022/07/18 00:42:13;;;;;;;2.50;2.30;;;16.50;91.50;;;17.31;57.07;98660.44;5139999;28;20235;-61
2022/07/18 00:44:46;;;;;;;2.53;2.35;;;16.40;92.00;;;17.23;57.59;98666.09;5142905;28;20196;-62
2022/07/18 00:47:21;;;;;;;2.85;2.65;;;16.30;92.00;;;17.20;57.85;98661.69;5142829;28;20259;-59
2022/07/18 00:49:54;;;;;;;2.97;2.78;;;16.30;92.20;;;17.16;58.48;98666.63;5139730;28;20286;-61
2022/07/18 00:52:27;;;;;;;2.83;2.35;;;16.30;92.40;;;17.12;58.72;98673.38;5135660;28;20235;-60
2022/07/18 00:55:01;;;;;;;2.90;2.70;;;16.30;92.80;;;17.05;58.70;98672.22;5139767;28;20216;-61
2022/07/18 00:57:34;;;;;;;2.65;2.47;;;16.20;92.40;;;17.04;58.04;98665.25;5141538;28;20255;-58
2022/07/18 01:03:03;;;;;;;2.70;2.33;;;16.10;92.70;;;16.99;58.22;98660.72;5140581;28;20201;-61
2022/07/18 01:05:36;;;;;;;2.60;2.50;;;16.10;92.80;;;16.90;58.99;98656.00;5143708;28;20207;-60
2022/07/18 01:08:09;;;;;;;2.97;2.78;;;16.00;92.90;;;16.91;58.47;98662.94;5147597;28;20583;-60
2022/07/18 01:10:43;;;;;;;3.10;2.85;;;16.00;92.80;;;16.81;59.41;98671.09;5141597;28;20199;-61
2022/07/18 01:13:16;;;;;;;2.85;2.60;;;16.00;93.00;;;16.77;59.08;98664.91;5139375;28;20212;-61
2022/07/18 01:15:49;;;;;;;2.60;2.40;;;15.90;93.10;;;16.73;59.19;98662.09;5145698;28;20199;-62
2022/07/18 01:18:24;;;;;;;2.90;2.70;;;15.90;93.20;;;16.73;58.92;98662.09;5145767;28;20200;-61
2022/07/18 01:20:59;;;;;;;3.10;2.80;;;15.80;93.10;;;16.69;59.06;98657.59;5143450;28;20246;-60
2022/07/18 01:23:32;;;;;;;2.85;2.65;;;15.90;92.80;;;16.64;58.90;98662.53;5145068;28;20203;-60
2022/07/18 01:26:09;;;;;;;2.67;2.47;;;15.70;93.00;;;16.57;59.64;98666.56;5146283;28;20223;-63
2022/07/18 01:28:47;;;;;;;2.72;2.60;;;15.70;93.20;;;16.56;59.31;98672.50;5151997;28;20701;-60
2022/07/18 01:31:21;;;;;;;3.03;2.72;;;15.70;93.30;;;16.54;59.10;98675.81;5144675;28;20239;-61
2022/07/18 01:33:56;;;;;;;3.25;2.72;;;15.70;93.10;;;16.41;59.24;98674.38;5141017;28;20247;-60
2022/07/18 01:36:30;;;;;;;2.90;2.60;;;15.60;93.00;;;16.35;59.01;98669.81;5144548;28;20631;-61
2022/07/18 01:39:04;;;;;;;2.40;2.30;;;15.50;92.90;;;16.32;59.06;98673.94;5138517;28;20196;-61
2022/07/18 01:41:37;;;;;;;2.55;2.42;;;15.40;93.00;;;16.31;60.32;98674.75;5146023;28;20255;-61
2022/07/18 01:44:10;;;;;;;3.00;2.80;;;15.50;93.80;;;16.31;59.31;98672.16;5136820;28;20693;-61
2022/07/18 01:46:43;;;;;;;3.15;2.22;;;15.40;93.50;;;16.21;60.00;98671.72;5144836;28;20251;-61
2022/07/18 01:49:17;;;;;;;2.70;2.50;;;15.40;93.50;;;16.14;59.33;98669.69;5143868;28;20215;-61
2022/07/18 01:51:54;;;;;;;2.75;2.55;;;15.30;92.80;;;16.11;59.02;98668.63;5140280;28;20220;-59
2022/07/18 01:54:34;;;;;;;2.42;2.33;;;15.30;93.00;;;15.98;58.94;98669.75;5140755;28;20258;-60
2022/07/18 01:57:08;;;;;;;2.75;2.42;;;15.10;93.30;;;15.91;59.78;98666.00;5138845;28;20188;-61
2022/07/18 01:59:41;;;;;;;2.60;2.40;;;15.10;93.70;;;15.98;60.53;98669.75;5142216;28;20207;-61
2022/07/18 02:02:14;;;;;;;3.15;2.80;;;15.10;93.90;;;15.94;60.58;98667.84;5141705;28;20675;-62
2022/07/18 02:05:03;;;;;;;2.72;2.53;;;15.10;94.20;;;15.89;60.87;98658.97;5141877;28;20327;-60
2022/07/18 02:07:40;;;;;;;3.15;2.65;;;15.10;94.50;;;15.78;60.19;98668.75;5145468;28;20316;-61
2022/07/18 02:10:18;;;;;;;2.58;2.38;;;14.90;93.90;;;15.74;60.23;98667.72;5137450;28;20668;-61
2022/07/18 02:12:51;;;;;;;2.58;2.40;;;14.80;93.90;;;15.62;59.53;98661.03;5142780;28;20661;-61
2022/07/18 02:15:24;;;;;;;2.80;2.60;;;14.70;93.70;;;15.56;59.35;98659.03;5140925;28;20266;-62
2022/07/18 02:17:58;;;;;;;2.38;2.20;;;14.80;93.20;;;15.58;59.40;98662.56;5145689;28;20196;-61
2022/07/18 02:20:32;;;;;;;2.88;2.67;;;14.80;93.50;;;15.50;59.25;98663.88;5135359;28;20923;-61
2022/07/18 02:23:07;;;;;;;2.67;2.47;;;14.70;93.00;;;15.50;60.10;98662.19;5145561;28;20723;-60
2022/07/18 02:25:40;;;;;;;2.67;2.45;;;14.70;93.10;;;15.48;59.28;98662.91;5139992;28;20286;-60
2022/07/18 02:28:14;;;;;;;2.78;2.53;;;14.70;93.00;;;15.53;59.32;98666.59;5139355;28;20220;-62
2022/07/18 02:30:48;;;;;;;2.58;2.33;;;14.70;93.10;;;15.48;59.39;98665.47;5135543;28;20220;-61
2022/07/18 02:33:21;;;;;;;3.63;2.58;;;14.70;93.40;;;15.26;60.71;98666.97;5132817;28;20200;-61
2022/07/18 02:35:54;;;;;;;2.60;2.40;;;14.50;93.80;;;15.30;60.54;98668.88;5144884;28;20196;-61
2022/07/18 02:38:29;;;;;;;2.28;2.08;;;14.50;94.10;;;15.31;61.03;98665.53;5144235;28;20201;-61
2022/07/18 02:41:02;;;;;;;2.50;2.30;;;14.50;94.40;;;15.26;61.00;98674.69;5142366;28;20726;-61
2022/07/18 02:43:35;;;;;;;2.80;2.60;;;14.40;94.60;;;15.21;61.75;98668.41;5140722;28;20635;-62
2022/07/18 02:46:09;;;;;;;3.15;2.95;;;14.40;94.70;;;15.19;61.38;98680.31;5137044;28;20201;-61
2022/07/18 02:48:42;;;;;;;3.42;2.45;;;14.30;94.70;;;15.22;60.93;98677.03;5138749;28;20314;-60
2022/07/18 02:51:15;;;;;;;2.83;2.63;;;14.40;95.00;;;15.16;61.34;98667.28;5143750;28;20584;-62
2022/07/18 02:53:50;;;;;;;2.65;2.50;;;14.30;94.90;;;15.15;61.72;98672.38;5143905;28;20647;-61
2022/07/18 02:56:23;;;;;;;3.30;2.70;;;14.30;95.10;;;15.06;61.62;98673.66;5144289;28;20199;-61
2022/07/18 02:58:56;;;;;;;2.80;2.60;;;14.20;95.00;;;15.06;61.82;98678.81;5140892;28;20235;-58
2022/07/18 03:01:29;;;;;;;2.63;2.42;;;14.20;94.70;;;15.06;60.75;98673.66;5140168;28;20224;-61
2022/07/18 03:04:03;;;;;;;2.67;2.58;;;14.30;94.30;;;15.10;60.70;98677.28;5139542;28;20218;-59
2022/07/18 03:06:37;;;;;;;2.63;2.42;;;14.30;94.40;;;15.07;60.50;98672.84;5139553;28;20210;-61
2022/07/18 03:09:11;;;;;;;3.25;2.70;;;14.30;93.90;;;15.06;60.92;98672.78;5144097;28;20227;-62
2022/07/18 03:11:45;;;;;;;2.47;2.28;;;14.40;93.90;;;15.09;60.22;98678.09;5139046;28;20687;-61
2022/07/18 03:14:18;;;;;;;2.85;2.65;;;14.40;93.80;;;15.06;60.32;98678.81;5134600;28;20197;-61
2022/07/18 03:16:51;;;;;;;2.50;2.30;;;14.30;93.80;;;15.09;60.33;98683.25;5136969;28;20261;-62
2022/07/18 03:19:24;;;;;;;3.15;2.53;;;14.40;93.60;;;15.13;60.01;98685.16;5141048;28;20196;-61
2022/07/18 03:21:58;;;;;;;2.50;2.40;;;14.40;93.50;;;15.18;59.70;98683.72;5140260;28;20224;-61
2022/07/18 03:24:33;;;;;;;2.50;2.30;;;14.50;93.00;;;15.13;58.92;98682.59;5140294;28;20200;-62
2022/07/18 03:27:06;;;;;;;2.60;2.40;;;14.40;93.10;;;15.08;59.55;98682.38;5138543;28;20286;-61
2022/07/18 03:29:39;;;;;;;2.85;2.22;;;14.30;93.00;;;15.02;59.38;98686.28;5140968;28;20247;-61
2022/07/18 03:32:12;;;;;;;2.20;2.10;;;14.20;93.30;;;14.91;60.02;98687.41;5141641;28;20742;-62
2022/07/18 03:34:45;;;;;;;2.85;2.65;;;14.10;93.70;;;14.84;60.30;98696.50;5142921;28;20204;-61
2022/07/18 03:37:19;;;;;;;4.40;4.00;;;14.00;94.10;;;14.84;60.17;98687.06;5142225;28;20204;-61
2022/07/18 03:39:53;;;;;;;3.38;3.13;;;14.00;94.10;;;14.83;60.44;98685.31;5140359;28;20625;-61
2022/07/18 03:42:26;;;;;;;3.53;2.60;;;14.00;93.70;;;14.71;59.21;98674.38;5138890;28;20707;-61
2022/07/18 03:44:59;;;;;;;2.90;2.70;;;13.80;93.40;;;14.63;60.08;98686.81;5138371;28;20469;-61
2022/07/18 03:47:32;;;;;;;3.17;2.97;;;13.80;94.20;;;14.58;61.59;98692.50;5135618;28;20911;-60
2022/07/18 03:50:07;;;;;;;3.17;2.97;;;13.80;94.90;;;14.53;61.37;98696.50;5140338;28;20208;-58
2022/07/18 03:52:40;;;;;;;2.80;2.60;;;13.70;94.90;;;14.55;61.83;98693.22;5135341;28;20223;-59
2022/07/18 03:55:16;;;;;;;3.08;2.80;;;13.80;95.40;;;14.56;61.83;98694.09;5142587;28;20208;-60
2022/07/18 03:57:49;;;;;;;2.80;2.58;;;13.80;95.50;;;14.56;62.72;98699.25;5141453;28;20286;-61
2022/07/18 04:00:22;;;;;;;3.35;2.95;;;13.80;95.50;;;14.60;62.74;98694.38;5140705;28;20235;-61
2022/07/18 04:02:56;;;;;;;3.88;3.42;;;13.80;95.60;;;14.59;64.01;98694.28;5139040;28;20230;-61
2022/07/18 04:05:36;;;;;;;3.40;3.20;;;13.90;95.80;;;14.62;62.62;98695.34;5141571;28;20739;-62
2022/07/18 04:08:10;;;;;;;3.00;2.80;;;14.00;95.40;;;14.63;62.10;98696.22;5139801;28;20580;-61
2022/07/18 04:10:44;;;;;;;3.15;2.95;;;13.90;95.40;;;14.63;62.41;98693.66;5136758;28;20200;-60
2022/07/18 04:13:17;;;;;;;3.45;3.10;;;13.90;95.50;;;14.60;63.07;98696.06;5135163;28;20269;-61
2022/07/18 04:15:51;;;;;;;3.95;2.63;;;13.90;95.50;;;14.63;62.98;98686.81;5138539;28;20245;-61
2022/07/18 04:18:24;;;;;;;2.90;2.70;;;14.00;95.30;;;14.67;62.26;98692.13;5138489;28;20214;-60
2022/07/18 04:20:57;;;;;;;2.95;2.75;;;13.90;95.40;;;14.73;62.68;98684.72;5139807;28;20241;-61
2022/07/18 04:23:30;;;;;;;3.38;2.67;;;13.90;95.50;;;14.69;62.08;98681.13;5140787;28;20219;-59
2022/07/18 04:26:05;;;;;;;2.70;2.50;;;14.00;95.40;;;14.76;62.67;98683.19;5138274;28;20196;-60
2022/07/18 04:28:38;;;;;;;3.08;2.78;;;14.10;95.60;;;14.79;62.69;98688.53;5138489;28;20220;-60
2022/07/18 04:31:11;;;;;;;3.40;3.10;;;14.10;95.80;;;14.90;62.89;98680.50;5135882;28;20212;-61
2022/07/18 04:33:44;;;;;;;3.47;3.17;;;14.20;95.50;;;14.94;62.10;98679.88;5135472;28;20255;-60
2022/07/18 04:36:18;;;;;;;3.20;2.90;;;14.20;95.40;;;14.92;62.79;98689.19;5138950;28;20255;-60
2022/07/18 04:38:52;;;;;;;2.63;2.42;;;14.20;95.50;;;15.01;62.68;98684.53;5133854;28;20227;-61
2022/07/18 04:41:26;;;;;;;3.00;2.67;;;14.30;95.30;;;15.03;62.75;98683.81;5133789;28;21031;-61
2022/07/18 04:44:07;;;;;;;3.33;3.08;;;14.30;95.30;;;15.08;61.20;98679.78;5136950;28;20211;-59
2022/07/18 04:46:40;;;;;;;3.65;3.08;;;14.30;94.90;;;15.15;61.04;98683.56;5132816;28;20196;-61
2022/07/18 04:49:14;;;;;;;3.40;2.75;;;14.40;94.80;;;15.22;60.52;98675.38;5132761;28;20390;-62
2022/07/18 04:51:57;;;;;;;4.05;2.85;;;14.50;94.20;;;15.26;60.21;98677.28;5140657;28;20758;-59
2022/07/18 04:54:31;;;;;;;3.00;2.80;;;14.40;94.30;;;15.33;60.47;98669.03;5135427;28;20200;-61
2022/07/18 04:57:06;;;;;;;2.70;2.50;;;14.50;94.60;;;15.42;60.54;98672.91;5134434;28;20254;-58
2022/07/18 04:59:39;;;;;;;4.45;2.70;;;14.60;94.40;;;15.59;60.35;98677.22;5130799;28;20203;-61
2022/07/18 05:02:12;;;;;;;3.03;2.83;;;14.80;94.40;;;15.67;60.95;98675.03;5135042;28;20227;-61
2022/07/18 05:04:46;;;;;;;3.10;2.90;;;14.90;94.60;;;15.97;60.42;98675.72;5129425;28;20727;-61
2022/07/18 05:07:19;;;;;;;2.88;2.65;;;15.20;94.50;;;16.31;58.55;98682.47;5132946;28;20259;-61
2022/07/18 05:09:52;;;;;;;4.55;2.42;;;15.50;93.20;;;16.63;57.30;98672.00;5131765;28;20309;-61
2022/07/18 05:12:27;;;;;;;4.18;2.85;;;15.80;92.80;;;16.89;56.43;98680.09;5134512;28;20657;-60
2022/07/18 05:15:00;;;;;;;3.60;2.75;;;16.00;92.20;;;17.27;55.73;98679.19;5132959;28;20247;-61
2022/07/18 05:17:35;;;;;;;3.72;2.60;;;16.20;92.20;;;17.55;55.01;98678.69;5134316;28;20218;-61
2022/07/18 05:20:12;;;;;;;3.08;2.78;;;16.40;91.60;;;17.79;53.97;98683.16;5133619;28;20290;-58
2022/07/18 05:22:47;;;;;;;2.83;2.50;;;16.60;91.20;;;17.90;53.61;98679.31;5131111;28;20223;-61
2022/07/18 05:25:22;;;;;;;3.35;2.85;;;16.60;90.90;;;18.34;52.42;98676.75;5133008;28;20263;-61
2022/07/18 05:27:57;;;;;;;2.70;2.50;;;17.20;90.00;;;19.03;50.68;98671.66;5132069;28;20730;-61
2022/07/18 05:30:30;;;;;;;2.90;2.70;;;17.90;87.90;;;19.67;49.24;98671.38;5132084;28;20640;-59
2022/07/18 05:33:04;;;;;;;2.45;2.25;;;18.40;86.10;;;20.34;47.27;98664.91;5132266;28;20200;-58
2022/07/18 05:35:38;;;;;;;2.80;2.60;;;19.00;84.40;;;20.95;45.90;98670.25;5133078;28;20254;-60
2022/07/18 05:38:11;;;;;;;2.40;2.28;;;19.60;82.10;;;21.06;45.43;98669.72;5130691;28;20680;-62
2022/07/18 05:40:44;;;;;;;2.95;2.50;;;19.70;81.50;;;21.58;44.88;98676.38;5130757;28;20232;-61
2022/07/18 05:43:18;;;;;;;3.15;2.40;;;20.10;81.00;;;22.04;43.81;98672.34;5131453;28;20258;-62
2022/07/18 05:45:51;;;;;;;2.72;2.53;;;20.40;79.80;;;22.47;42.51;98665.59;5132222;28;22032;-61
2022/07/18 05:48:25;;;;;;;2.78;2.58;;;20.80;78.10;;;22.55;41.41;98667.47;5132076;28;20315;-61
2022/07/18 05:50:58;;;;;;;2.63;2.20;;;20.90;76.40;;;22.77;40.61;98663.63;5132673;28;20220;-61
2022/07/18 05:53:31;;;;;;;4.68;2.60;;;20.80;75.50;;;23.05;40.40;98675.56;5137047;28;20222;-62
2022/07/18 05:56:07;;;;;;;2.67;2.47;;;21.00;75.80;;;23.05;40.20;98670.34;5135309;28;20204;-61
2022/07/18 05:58:42;;;;;;;3.35;2.25;;;21.10;75.30;;;23.33;40.18;98675.25;5134511;28;20270;-62
2022/07/18 06:01:20;;;;;;;2.95;2.40;;;21.30;75.50;;;23.55;39.99;98673.03;5137220;28;20651;-62
2022/07/18 06:03:53;;;;;;;2.72;1.98;;;21.50;75.10;;;23.65;38.67;98667.16;5135128;28;20294;-62
2022/07/18 06:06:26;;;;;;;3.35;2.45;;;21.50;73.30;;;23.71;39.00;98666.41;5135482;28;20271;-62
2022/07/18 06:08:59;;;;;;;3.45;2.33;;;21.60;74.20;;;24.10;38.97;98661.00;5133803;28;20295;-58
2022/07/18 06:11:33;;;;;;;2.85;2.40;;;21.80;74.30;;;24.13;38.04;98662.78;5133885;28;20647;-59
2022/07/18 06:14:07;;;;;;;3.92;2.35;;;21.90;72.80;;;24.31;38.03;98667.41;5136201;28;20208;-62
2022/07/18 06:16:41;;;;;;;2.33;2.13;;;22.10;72.80;;;24.90;36.63;98662.19;5135069;28;20318;-60
2022/07/18 06:19:14;;;;;;;3.83;2.40;;;22.40;72.00;;;25.26;36.41;98667.00;5138954;28;20200;-61
2022/07/18 06:21:53;;;;;;;2.50;2.30;;;22.60;71.00;;;25.17;35.32;98665.16;5138440;28;20570;-61
2022/07/18 06:24:26;;;;;;;2.90;2.40;;;22.50;69.70;;;25.50;35.58;98666.41;5142340;28;20632;-61
2022/07/18 06:27:00;;;;;;;3.45;2.22;;;22.70;70.70;;;25.28;35.86;98667.91;5141949;28;21195;-62
2022/07/18 06:29:34;;;;;;;2.60;2.40;;;22.90;70.00;;;25.85;35.19;98658.06;5140687;28;20733;-62
2022/07/18 06:32:07;;;;;;;3.75;2.22;;;23.30;69.10;;;26.41;34.27;98649.75;5140686;28;20263;-61
2022/07/18 06:34:41;;;;;;;2.72;2.38;;;23.60;68.80;;;26.63;33.91;98660.41;5139792;28;20212;-61
2022/07/18 06:37:14;;;;;;;3.15;2.03;;;23.80;67.50;;;26.89;34.06;98645.66;5136933;28;20207;-62
2022/07/18 06:39:47;;;;;;;2.65;2.30;;;24.10;68.40;;;27.03;33.33;98650.97;5141603;28;20258;-61
2022/07/18 06:42:20;;;;;;;3.00;2.10;;;24.30;67.20;;;27.55;32.23;98648.53;5142111;28;20227;-62
2022/07/18 06:44:55;;;;;;;3.53;2.25;;;24.60;65.90;;;27.68;32.38;98644.19;5141030;28;20203;-60
2022/07/18 06:47:28;;;;;;;2.42;2.22;;;25.00;65.40;;;28.12;31.11;98639.84;5144010;28;20634;-62
2022/07/18 06:50:01;;;;;;;3.55;2.13;;;25.40;63.10;;;28.55;31.10;98643.31;5139143;28;20247;-62
2022/07/18 06:52:34;;;;;;;2.97;2.15;;;25.90;62.80;;;28.89;30.58;98640.59;5142112;28;20266;-62
2022/07/18 06:55:10;;;;;;;3.20;1.90;;;26.30;62.80;;;29.25;30.09;98651.88;5140252;28;20203;-61
2022/07/18 06:57:45;;;;;;;3.08;1.80;;;26.60;61.10;;;29.23;30.08;98654.50;5143281;28;20199;-62
2022/07/18 07:00:19;;;;;;;2.10;1.90;;;26.60;61.00;;;29.56;27.86;98650.81;5141222;28;20199;-62
2022/07/18 07:02:52;;;;;;;2.33;1.88;;;26.70;58.10;;;29.37;26.98;98641.28;5138652;28;20634;-61
2022/07/18 07:05:26;;;;;;;2.17;1.80;;;26.90;56.70;;;29.72;25.87;98654.25;5141966;28;20195;-62
2022/07/18 07:07:59;;;;;;;1.80;1.70;;;26.70;56.50;;;29.77;27.09;98651.59;5141440;28;20285;-61
2022/07/18 07:10:32;;;;;;;3.15;1.92;;;26.90;58.00;;;30.23;26.97;98656.53;5141208;28;20251;-62
2022/07/18 07:13:05;;;;;;;2.63;1.85;;;27.50;57.30;;;30.55;25.44;98648.28;5139012;28;20207;-62
2022/07/18 07:15:40;;;;;;;2.35;1.92;;;27.80;55.40;;;30.73;25.54;98640.16;5140324;28;20618;-62
2022/07/18 07:18:13;;;;;;;2.90;1.90;;;28.20;55.10;;;30.93;25.58;98639.06;5133280;28;20215;-62
2022/07/18 07:20:46;;;;;;;2.15;1.73;;;28.30;54.90;;;31.22;24.20;98643.09;5133818;28;20223;-62
2022/07/18 07:23:20;;;;;;;2.05;1.80;;;28.60;53.00;;;31.37;24.21;98641.19;5137020;28;20204;-59
2022/07/18 07:25:54;;;;;;;2.25;1.80;;;28.60;53.40;;;31.09;24.96;98632.72;5140610;28;20274;-62
2022/07/18 07:28:27;;;;;;;3.45;2.15;;;28.50;54.50;;;31.36;24.69;98634.16;5136623;28;20223;-62
2022/07/18 07:31:02;;;;;;;2.55;1.90;;;28.60;54.30;;;31.62;24.64;98628.47;5137196;28;20299;-61
2022/07/18 07:33:35;;;;;;;4.47;1.80;;;29.00;53.80;;;31.86;24.94;98639.56;5139825;28;20253;-62
2022/07/18 07:36:08;;;;;;;2.83;1.85;;;29.20;54.50;;;32.16;24.88;98632.91;5140159;28;20204;-62
2022/07/18 07:38:41;;;;;;;2.58;1.70;;;29.30;54.40;;;32.13;25.06;98640.03;5137510;28;20207;-61
2022/07/18 07:41:15;;;;;;;3.33;2.13;;;29.40;54.20;;;32.41;24.29;98635.13;5140466;28;20282;-62
2022/07/18 07:43:48;;;;;;;3.60;1.85;;;29.40;54.30;;;32.44;24.00;98627.13;5139823;28;20262;-61
2022/07/18 07:46:22;;;;;;;2.40;1.85;;;29.60;53.60;;;32.74;23.99;98628.34;5137997;28;20627;-63
2022/07/18 07:48:56;;;;;;;1.63;1.52;;;29.80;53.00;;;32.69;23.52;98619.63;5138715;28;20203;-59
2022/07/18 07:51:29;;;;;;;2.05;1.40;;;29.90;52.40;;;32.36;22.62;98623.75;5143727;28;20664;-62
2022/07/18 07:54:07;;;;;;;1.92;1.50;;;29.80;51.00;;;32.29;22.14;98618.56;5135814;28;20195;-63
2022/07/18 07:56:40;;;;;;;2.88;1.48;;;29.60;50.00;;;32.42;21.73;98620.97;5137098;28;20204;-60
2022/07/18 07:59:13;;;;;;;3.88;1.50;;;29.70;50.00;;;32.53;22.40;98617.25;5135423;28;20266;-62
2022/07/18 08:01:48;;;;;;;2.38;1.70;;;29.70;50.10;;;32.78;22.88;98613.25;5137644;28;20302;-61
2022/07/18 08:04:21;;;;;;;2.25;1.45;;;29.90;51.50;;;33.12;22.46;98616.97;5141119;28;20253;-63
2022/07/18 08:06:54;;;;;;;2.70;1.42;;;30.30;51.60;;;33.51;21.42;98617.00;5140527;28;20672;-63
2022/07/18 08:09:27;;;;;;;2.05;1.80;;;30.60;50.40;;;33.33;21.15;98612.97;5139128;28;20199;-62
2022/07/18 08:12:01;;;;;;;1.88;1.60;;;30.70;49.40;;;33.14;21.54;98614.31;5137641;28;20227;-63
2022/07/18 08:14:37;;;;;;;1.98;1.75;;;30.50;50.20;;;32.83;23.21;98614.03;5141165;28;20194;-63
2022/07/18 08:17:12;;;;;;;3.17;1.80;;;30.60;51.90;;;33.40;21.98;98616.38;5138238;28;20583;-62
2022/07/18 08:19:45;;;;;;;2.60;1.55;;;30.70;50.70;;;33.68;22.09;98618.38;5137354;28;20203;-62
2022/07/18 08:22:18;;;;;;;1.98;1.60;;;31.00;49.80;;;34.00;21.08;98614.97;5141328;28;20274;-60
2022/07/18 08:24:52;;;;;;;3.25;1.88;;;31.40;50.20;;;33.64;22.59;98610.50;5137731;28;20203;-62
2022/07/18 08:27:25;;;;;;;2.95;1.63;;;31.30;50.50;;;34.08;22.21;98605.91;5139925;28;20203;-62
2022/07/18 08:29:58;;;;;;;5.00;1.88;;;31.80;50.70;;;34.07;22.98;98609.47;5137185;28;20725;-63
2022/07/18 08:32:42;;;;;;;2.15;1.75;;;32.10;50.70;;;33.94;22.57;98602.72;5136930;28;20255;-61
2022/07/18 08:35:16;;;;;;;3.13;1.95;;;31.90;50.80;;;33.89;23.86;98609.91;5139614;28;20582;-62
2022/07/18 08:37:49;;;;;;;2.40;1.92;;;32.00;51.70;;;33.84;23.59;98604.72;5138482;28;20199;-62
2022/07/18 08:40:22;;;;;;;2.60;2.08;;;32.00;50.80;;;34.00;23.26;98602.56;5137619;28;20207;-62
2022/07/18 08:42:58;;;;;;;3.13;2.00;;;32.00;51.70;;;34.12;23.73;98600.53;5137122;28;20199;-62
2022/07/18 08:45:56;;;;;;;3.55;1.95;;;32.10;51.40;;;34.15;22.73;98609.28;5138872;28;20760;-62
2022/07/18 08:48:31;;;;;;;2.75;2.03;;;32.30;50.50;;;34.16;22.39;98602.19;5138967;28;20218;-62
2022/07/18 08:51:05;;;;;;;2.75;2.10;;;32.50;50.10;;;34.33;22.88;98599.06;5138547;28;20223;-62
2022/07/18 08:53:39;;;;;;;2.55;2.10;;;32.60;50.20;;;34.35;22.19;98598.13;5129158;28;20263;-62
2022/07/18 08:56:12;;;;;;;3.38;2.08;;;32.80;49.60;;;34.36;22.74;98594.53;5136767;28;20558;-62
2022/07/18 08:58:45;;;;;;;5.00;2.20;;;32.90;49.50;;;34.52;22.37;98601.19;5137983;28;20203;-63
2022/07/18 09:01:19;;;;;;;2.60;2.40;;;32.80;49.20;;;34.34;22.14;98592.84;5136850;28;20232;-62
2022/07/18 09:06:45;;;;;;;2.20;2.00;;;32.70;49.40;;;34.26;21.39;98593.06;5133618;28;20219;-63
2022/07/18 09:09:19;;;;;;;4.10;2.28;;;32.70;48.20;;;34.12;20.25;98596.09;5133414;28;20215;-63
2022/07/18 09:11:54;;;;;;;2.50;2.30;;;32.70;46.80;;;34.01;21.10;98592.81;5138537;28;20589;-63
2022/07/18 09:14:35;;;;;;;2.92;1.90;;;32.50;47.50;;;33.99;20.80;98595.47;5133024;28;20207;-63
2022/07/18 09:17:11;;;;;;;3.10;2.00;;;32.50;47.50;;;34.25;21.00;98599.28;5136079;28;20200;-63
2022/07/18 09:19:59;;;;;;;2.15;1.92;;;32.80;47.50;;;34.19;20.26;98602.09;5136550;28;20207;-63
2022/07/18 09:22:34;;;;;;;2.03;1.92;;;32.70;46.90;;;34.38;18.49;98603.34;5135603;28;20223;-63
2022/07/18 09:25:10;;;;;;;2.20;2.00;;;33.10;43.50;;;34.39;18.88;98597.13;5136566;28;20196;-63
2022/07/18 09:27:45;;;;;;;1.90;1.80;;;33.10;44.60;;;34.35;19.67;98602.56;5140351;28;20199;-63
2022/07/18 09:30:26;;;;;;;1.98;1.80;;;33.10;44.80;;;34.19;19.23;98602.09;5143154;28;20601;-62
2022/07/18 09:33:10;;;;;;;2.25;1.80;;;33.00;43.70;;;33.94;19.05;98597.41;5140819;28;20199;-61
2022/07/18 09:35:47;;;;;;;2.30;2.10;;;32.80;44.00;;;34.05;19.39;98587.44;5145886;28;20275;-63
2022/07/18 09:38:22;;;;;;;1.92;1.83;;;32.90;44.30;;;33.89;18.67;98587.81;5144036;28;21040;-63
2022/07/18 09:40:57;;;;;;;2.13;1.67;;;32.80;43.60;;;33.55;18.61;98589.50;5142732;28;20573;-63
2022/07/18 09:43:38;;;;;;;1.80;1.70;;;32.50;43.20;;;33.55;19.49;98592.16;5144406;28;20541;-63
2022/07/18 09:46:11;;;;;;;2.08;1.80;;;32.50;44.50;;;33.49;19.91;98586.97;5141435;28;20203;-61
2022/07/18 09:49:09;;;;;;;1.88;1.77;;;32.50;44.40;;;33.35;21.06;98589.09;5143848;28;20214;-62
2022/07/18 09:52:06;;;;;;;1.90;1.80;;;32.30;46.10;;;33.23;19.91;98590.25;5139949;28;20230;-63
2022/07/18 09:54:42;;;;;;;2.55;1.80;;;32.40;45.00;;;33.30;20.10;98577.72;5137685;28;20626;-63
2022/07/18 09:57:25;;;;;;;2.08;1.80;;;32.40;45.20;;;33.52;20.12;98584.28;5141872;28;20225;-62
2022/07/18 10:00:00;;;;;;;2.15;1.95;;;32.50;44.70;;;33.70;19.69;98579.44;5137535;28;20242;-63
2022/07/18 10:02:33;;;;;;;1.95;1.85;;;32.70;44.90;;;33.61;20.85;98578.75;5141981;28;20246;-63
2022/07/18 10:05:08;;;;;;;2.15;2.03;;;32.70;45.40;;;33.48;20.07;98587.00;5141270;28;20223;-61
2022/07/18 10:07:44;;;;;;;2.22;2.03;;;32.50;45.90;;;33.31;21.66;98585.63;5138483;28;20210;-62
2022/07/18 10:10:18;;;;;;;1.98;1.80;;;32.40;46.50;;;33.42;20.86;98585.38;5140240;28;20210;-59
2022/07/18 10:12:54;;;;;;;1.90;1.75;;;32.40;45.80;;;33.46;21.29;98583.53;5139709;28;20375;-60
2022/07/18 10:15:30;;;;;;;2.25;1.90;;;32.40;46.00;;;33.73;21.46;98584.66;5134662;28;20242;-63
2022/07/18 10:18:06;;;;;;;1.80;1.70;;;32.70;45.90;;;33.63;20.87;98582.25;5139744;28;20204;-60
2022/07/18 10:20:43;;;;;;;2.00;1.90;;;32.60;45.10;;;33.33;20.21;98575.84;5137457;28;20199;-62
2022/07/18 10:23:21;;;;;;;2.08;1.90;;;32.30;44.50;;;33.35;21.08;98571.41;5138447;28;20204;-62
2022/07/18 10:26:12;;;;;;;2.17;1.95;;;32.30;45.90;;;33.31;21.30;98569.75;5142081;28;20240;-61
2022/07/18 10:29:14;;;;;;;2.40;2.03;;;32.30;45.80;;;33.34;20.34;98574.97;5132611;28;20262;-61
2022/07/18 10:32:06;;;;;;;2.53;2.10;;;32.20;45.40;;;33.03;20.74;98568.63;5133412;28;20231;-64
2022/07/18 10:34:39;;;;;;;1.83;1.73;;;32.10;45.70;;;33.11;21.89;98577.25;5143285;28;20192;-61
2022/07/18 10:37:13;;;;;;;2.95;1.88;;;32.20;46.00;;;33.10;21.72;98573.72;5138029;28;20290;-60
2022/07/18 10:39:49;;;;;;;1.85;1.75;;;32.10;47.10;;;33.03;21.27;98574.78;5140580;28;20195;-63
2022/07/18 10:42:24;;;;;;;1.98;1.88;;;32.10;46.60;;;32.84;22.44;98568.09;5142864;28;20581;-64
2022/07/18 10:44:57;;;;;;;1.92;1.77;;;31.90;47.10;;;32.91;21.64;98567.09;5138530;28;20203;-62
2022/07/18 10:47:30;;;;;;;2.00;1.90;;;31.90;46.90;;;32.92;21.65;98563.50;5138358;28;20211;-61
2022/07/18 10:50:11;;;;;;;2.10;1.90;;;32.00;46.60;;;32.90;21.80;98560.00;5141621;28;20730;-60
2022/07/18 10:53:02;;;;;;;1.95;1.75;;;31.90;46.80;;;32.81;21.75;98565.53;5139896;28;20223;-62
2022/07/18 10:55:48;;;;;;;1.98;1.80;;;31.90;46.40;;;32.73;21.31;98566.53;5139993;28;20197;-62
2022/07/18 10:58:24;;;;;;;2.28;1.80;;;31.90;45.80;;;32.68;21.55;98554.28;5142505;28;20203;-61